createdAt,value
2023-04-21T00:00:36.547Z,98410.34
2023-04-21T00:03:38.854Z,98387.38
2023-04-21T00:06:41.709Z,98400.66
2023-04-21T00:09:43.533Z,98395.28
2023-04-21T00:12:45.100Z,98399.78
2023-04-21T00:15:48.185Z,98389.22
2023-04-21T00:18:49.894Z,98389.22
2023-04-21T00:21:52.026Z,98386.50
2023-04-21T00:24:53.655Z,98374.97
2023-04-21T00:27:55.511Z,98375.97
2023-04-21T00:30:58.665Z,98376.94
2023-04-21T00:34:00.773Z,98376.88
2023-04-21T00:37:03.085Z,98363.53
2023-04-21T00:40:05.932Z,98362.56
2023-04-21T00:43:07.767Z,98362.47
2023-04-21T00:46:10.853Z,98360.59
2023-04-21T00:49:13.848Z,98362.25
2023-04-21T00:52:17.050Z,98356.81
2023-04-21T00:55:18.712Z,98358.63
2023-04-21T00:58:20.485Z,98356.03
2023-04-21T01:01:24.519Z,98357.75
2023-04-21T01:04:26.851Z,98363.06
2023-04-21T01:07:28.913Z,98353.38
2023-04-21T01:10:31.293Z,98349.91
2023-04-21T01:13:32.841Z,98355.16
2023-04-21T01:16:37.073Z,98353.38
2023-04-21T01:22:45.450Z,98359.59
2023-04-21T01:25:47.290Z,98359.75
2023-04-21T01:28:49.486Z,98370.28
2023-04-21T01:31:53.493Z,98367.56
2023-04-21T01:34:55.899Z,98368.44
2023-04-21T01:37:59.180Z,98361.41
2023-04-21T01:41:00.855Z,98361.34
2023-04-21T01:44:02.583Z,98366.84
2023-04-21T01:47:06.310Z,98358.94
2023-04-21T01:50:08.446Z,98363.47
2023-04-21T01:53:11.607Z,98360.81
2023-04-21T01:56:13.819Z,98356.44
2023-04-21T01:59:15.849Z,98358.38
2023-04-21T02:02:17.589Z,98357.44
2023-04-21T02:05:24.042Z,98364.59
2023-04-21T02:08:27.154Z,98364.81
2023-04-21T02:11:29.214Z,98365.81
2023-04-21T02:14:30.831Z,98359.38
2023-04-21T02:17:33.100Z,98357.66
2023-04-21T02:20:35.193Z,98363.03
2023-04-21T02:23:38.702Z,98359.69
2023-04-21T02:26:40.427Z,98364.09
2023-04-21T02:29:42.154Z,98365.16
2023-04-21T02:32:43.940Z,98372.31
2023-04-21T02:35:46.800Z,98372.31
2023-04-21T02:38:49.809Z,98378.50
2023-04-21T02:41:51.522Z,98374.25
2023-04-21T02:44:53.176Z,98376.78
2023-04-21T02:47:54.870Z,98374.97
2023-04-21T02:50:56.978Z,98365.28
2023-04-21T02:53:59.936Z,98365.47
2023-04-21T02:57:02.176Z,98365.41
2023-04-21T03:00:05.072Z,98359.25
2023-04-21T03:03:07.165Z,98360.09
2023-04-21T03:06:09.960Z,98357.50
2023-04-21T03:09:12.958Z,98369.00
2023-04-21T03:12:14.701Z,98373.47
2023-04-21T03:15:16.907Z,98367.28
2023-04-21T03:18:18.709Z,98368.34
2023-04-21T03:21:20.473Z,98369.22
2023-04-21T03:24:23.484Z,98368.41
2023-04-21T03:27:25.345Z,98371.06
2023-04-21T03:30:27.667Z,98369.34
2023-04-21T03:33:29.462Z,98373.72
2023-04-21T03:36:31.361Z,98379.94
2023-04-21T03:39:34.335Z,98371.19
2023-04-21T03:42:37.174Z,98368.53
2023-04-21T03:45:38.937Z,98375.63
2023-04-21T03:48:40.745Z,98372.09
2023-04-21T03:51:42.432Z,98378.31
2023-04-21T03:54:45.502Z,98374.84
2023-04-21T03:57:47.080Z,98374.84
2023-04-21T04:00:48.729Z,98371.28
2023-04-21T04:03:50.953Z,98360.66
2023-04-21T04:06:52.777Z,98353.63
2023-04-21T04:09:55.782Z,98358.00
2023-04-21T04:12:57.999Z,98351.78
2023-04-21T04:16:00.071Z,98364.16
2023-04-21T04:19:01.867Z,98364.16
2023-04-21T04:22:03.693Z,98362.28
2023-04-21T04:25:07.178Z,98357.03
2023-04-21T04:28:09.269Z,98364.03
2023-04-21T04:31:11.014Z,98350.69
2023-04-21T04:34:12.734Z,98366.56
2023-04-21T04:37:14.577Z,98356.81
2023-04-21T04:40:17.721Z,98358.66
2023-04-21T04:43:19.315Z,98353.41
2023-04-21T04:46:21.605Z,98349.81
2023-04-21T04:49:24.193Z,98356.13
2023-04-21T04:52:26.356Z,98344.63
2023-04-21T04:55:29.522Z,98353.53
2023-04-21T04:58:31.210Z,98352.63
2023-04-21T05:01:32.958Z,98354.47
2023-04-21T05:04:34.756Z,98363.38
2023-04-21T05:07:37.295Z,98360.66
2023-04-21T05:10:40.717Z,98362.38
2023-04-21T05:13:42.377Z,98371.00
2023-04-21T05:16:44.313Z,98376.25
2023-04-21T05:19:46.073Z,98364.75
2023-04-21T05:22:47.775Z,98375.38
2023-04-21T05:25:50.730Z,98374.50
2023-04-21T05:28:52.291Z,98371.81
2023-04-21T05:31:54.006Z,98374.31
2023-04-21T05:34:55.633Z,98373.13
2023-04-21T05:37:57.289Z,98380.81
2023-04-21T05:41:00.319Z,98377.81
2023-04-21T05:44:04.006Z,98372.16
2023-04-21T05:47:06.184Z,98376.25
2023-04-21T05:50:08.100Z,98368.94
2023-04-21T05:53:09.830Z,98375.75
2023-04-21T05:56:13.027Z,98373.72
2023-04-21T05:59:14.590Z,98375.13
2023-04-21T06:02:16.298Z,98379.38
2023-04-21T06:05:18.324Z,98380.75
2023-04-21T06:08:19.963Z,98378.59
2023-04-21T06:11:24.029Z,98379.38
2023-04-21T06:14:25.611Z,98374.63
2023-04-21T06:17:27.405Z,98385.69
2023-04-21T06:20:29.182Z,98386.47
2023-04-21T06:23:30.905Z,98379.34
2023-04-21T06:26:36.976Z,98375.25
2023-04-21T06:29:38.629Z,98378.63
2023-04-21T06:32:40.708Z,98374.38
2023-04-21T06:35:42.478Z,98373.69
2023-04-21T06:38:44.142Z,98368.59
2023-04-21T06:41:47.489Z,98373.56
2023-04-21T06:44:50.900Z,98367.03
2023-04-21T06:47:52.732Z,98368.22
2023-04-21T06:50:54.325Z,98369.69
2023-04-21T06:53:55.922Z,98374.50
2023-04-21T06:56:59.102Z,98363.06
2023-04-21T07:00:00.752Z,98365.03
2023-04-21T07:03:02.764Z,98367.38
2023-04-21T07:06:04.953Z,98359.13
2023-04-21T07:09:07.147Z,98368.69
2023-04-21T07:12:10.248Z,98367.22
2023-04-21T07:15:12.261Z,98361.44
2023-04-21T07:18:14.071Z,98360.00
2023-04-21T07:21:15.798Z,98359.31
2023-04-21T07:24:17.501Z,98365.97
2023-04-21T07:27:20.906Z,98362.09
2023-04-21T07:30:23.121Z,98368.06
2023-04-21T07:33:24.795Z,98364.06
2023-04-21T07:36:29.751Z,98368.00
2023-04-21T07:39:32.821Z,98373.91
2023-04-21T07:42:35.753Z,98369.56
2023-04-21T07:45:37.446Z,98366.81
2023-04-21T07:48:39.379Z,98367.09
2023-04-21T07:51:41.018Z,98366.31
2023-04-21T07:54:43.526Z,98368.50
2023-04-21T07:57:47.028Z,98358.00
2023-04-21T08:00:48.893Z,98358.38
2023-04-21T08:03:50.926Z,98351.72
2023-04-21T08:06:53.558Z,98358.66
2023-04-21T08:09:56.138Z,98352.94
2023-04-21T08:13:02.523Z,98347.53
2023-04-21T08:16:04.341Z,98344.72
2023-04-21T08:19:07.475Z,98343.31
2023-04-21T08:22:09.249Z,98347.97
2023-04-21T08:25:11.055Z,98345.88
2023-04-21T08:28:15.677Z,98342.50
2023-04-21T08:31:17.744Z,98340.47
2023-04-21T08:34:20.865Z,98338.56
2023-04-21T08:37:23.639Z,98340.53
2023-04-21T08:40:32.155Z,98339.75
2023-04-21T08:43:35.095Z,98343.22
2023-04-21T08:46:36.923Z,98338.44
2023-04-21T08:49:39.292Z,98349.34
2023-04-21T08:52:40.900Z,98335.19
2023-04-21T08:55:42.678Z,98341.72
2023-04-21T08:58:45.904Z,98341.38
2023-04-21T09:02:06.508Z,98336.19
2023-04-21T09:05:08.672Z,98347.66
2023-04-21T09:08:11.595Z,98346.03
2023-04-21T09:11:14.148Z,98331.75
2023-04-21T09:14:19.708Z,98332.28
2023-04-21T09:17:23.139Z,98327.78
2023-04-21T09:20:25.216Z,98330.53
2023-04-21T09:23:26.763Z,98328.53
2023-04-21T09:26:28.522Z,98327.25
2023-04-21T09:29:31.415Z,98316.88
2023-04-21T09:32:36.413Z,98317.56
2023-04-21T09:35:43.113Z,98309.78
2023-04-21T09:38:47.699Z,98319.97
2023-04-21T09:41:49.355Z,98313.66
2023-04-21T09:44:58.144Z,98318.91
2023-04-21T09:48:13.457Z,98308.91
2023-04-21T09:51:25.423Z,98319.88
2023-04-21T09:54:42.220Z,98320.28
2023-04-21T09:57:44.968Z,98308.91
2023-04-21T10:00:48.252Z,98290.81
2023-04-21T10:03:50.934Z,98298.13
2023-04-21T10:06:53.509Z,98295.13
2023-04-21T10:09:56.119Z,98293.31
2023-04-21T10:12:58.278Z,98293.06
2023-04-21T10:16:05.278Z,98285.88
2023-04-21T10:19:21.834Z,98280.63
2023-04-21T10:22:28.333Z,98276.22
2023-04-21T10:25:30.510Z,98270.19
2023-04-21T10:28:42.621Z,98254.41
2023-04-21T10:31:52.880Z,98260.44
2023-04-21T10:34:56.707Z,98268.88
2023-04-21T10:37:58.792Z,98263.47
2023-04-21T10:41:08.551Z,98251.16
2023-04-21T10:44:12.383Z,98249.28
2023-04-21T10:47:24.602Z,98243.78
2023-04-21T10:50:29.494Z,98228.69
2023-04-21T10:53:43.042Z,98229.88
2023-04-21T10:56:44.842Z,98228.69
2023-04-21T10:59:47.472Z,98230.38
2023-04-21T11:02:58.288Z,98216.44
2023-04-21T11:06:00.381Z,98214.84
2023-04-21T11:09:03.682Z,98205.47
2023-04-21T11:12:07.390Z,98202.94
2023-04-21T11:15:10.351Z,98202.78
2023-04-21T11:18:14.561Z,98196.09
2023-04-21T11:21:22.054Z,98202.09
2023-04-21T11:24:24.015Z,98195.66
2023-04-21T11:27:27.108Z,98186.66
2023-04-21T11:30:32.888Z,98191.66
2023-04-21T11:33:37.887Z,98181.63
2023-04-21T11:36:40.275Z,98170.72
2023-04-21T11:39:43.796Z,98174.84
2023-04-21T11:42:45.662Z,98167.13
2023-04-21T11:45:49.176Z,98170.06
2023-04-21T11:49:02.702Z,98169.34
2023-04-21T11:52:04.431Z,98169.44
2023-04-21T11:55:06.971Z,98170.16
2023-04-21T11:58:08.765Z,98165.38
2023-04-21T12:01:10.565Z,98161.94
2023-04-21T12:04:17.587Z,98152.00
2023-04-21T12:07:22.480Z,98169.81
2023-04-21T12:10:24.198Z,98175.03
2023-04-21T12:13:27.413Z,98166.13
2023-04-21T12:16:29.464Z,98168.41
2023-04-21T12:19:42.440Z,98155.25
2023-04-21T12:22:44.441Z,98164.66
2023-04-21T12:25:46.991Z,98156.34
2023-04-21T12:28:48.593Z,98153.09
2023-04-21T12:31:50.410Z,98145.47
2023-04-21T12:34:53.470Z,98139.63
2023-04-21T12:37:55.363Z,98136.66
2023-04-21T12:40:56.921Z,98146.47
2023-04-21T12:43:58.521Z,98136.38
2023-04-21T12:47:00.363Z,98140.78
2023-04-21T12:50:03.652Z,98144.34
2023-04-21T12:53:05.418Z,98137.53
2023-04-21T12:56:07.240Z,98134.00
2023-04-21T12:59:10.592Z,98135.16
2023-04-21T13:02:12.475Z,98136.91
2023-04-21T13:05:15.565Z,98133.19
2023-04-21T13:08:17.489Z,98137.78
2023-04-21T13:11:19.213Z,98126.41
2023-04-21T13:14:21.282Z,98127.78
2023-04-21T13:17:24.385Z,98122.72
2023-04-21T13:20:27.898Z,98124.66
2023-04-21T13:23:30.047Z,98119.53
2023-04-21T13:26:33.827Z,98115.25
2023-04-21T13:29:36.066Z,98112.00
2023-04-21T13:32:38.145Z,98108.06
2023-04-21T13:35:41.322Z,98104.16
2023-04-21T13:38:43.152Z,98105.91
2023-04-21T13:41:44.876Z,98105.34
2023-04-21T13:44:47.343Z,98095.88
2023-04-21T13:47:49.074Z,98106.38
2023-04-21T13:50:52.532Z,98098.47
2023-04-21T13:53:54.529Z,98093.09
2023-04-21T13:56:57.371Z,98093.31
2023-04-21T14:00:00.631Z,98083.16
2023-04-21T14:03:02.405Z,98082.41
2023-04-21T14:06:05.926Z,98085.59
2023-04-21T14:09:09.448Z,98076.22
2023-04-21T14:12:11.419Z,98066.00
2023-04-21T14:15:13.822Z,98065.09
2023-04-21T14:18:15.644Z,98063.31
2023-04-21T14:21:18.687Z,98060.13
2023-04-21T14:24:21.835Z,98060.53
2023-04-21T14:27:28.628Z,98056.88
2023-04-21T14:30:30.512Z,98054.84
2023-04-21T14:33:33.437Z,98044.69
2023-04-21T14:36:36.708Z,98053.41
2023-04-21T14:39:38.442Z,98047.75
2023-04-21T14:42:41.644Z,98043.00
2023-04-21T14:45:43.706Z,98050.03
2023-04-21T14:48:45.759Z,98048.06
2023-04-21T14:51:53.169Z,98042.44
2023-04-21T14:54:54.910Z,98038.44
2023-04-21T14:57:56.482Z,98032.59
2023-04-21T15:00:58.446Z,98031.47
2023-04-21T15:04:00.693Z,98026.34
2023-04-21T15:07:03.865Z,98017.28
2023-04-21T15:10:06.082Z,98020.00
2023-04-21T15:13:07.816Z,98008.03
2023-04-21T15:16:10.091Z,98002.47
2023-04-21T15:19:11.911Z,97999.59
2023-04-21T15:22:29.038Z,97998.88
2023-04-21T15:25:32.084Z,97998.28
2023-04-21T15:28:35.640Z,98000.31
2023-04-21T15:31:37.739Z,98003.84
2023-04-21T15:34:39.520Z,98001.63
2023-04-21T15:37:41.406Z,97994.72
2023-04-21T15:40:59.693Z,97995.44
2023-04-21T15:44:03.056Z,97996.66
2023-04-21T15:47:05.106Z,97993.69
2023-04-21T15:50:07.421Z,97995.00
2023-04-21T15:53:09.053Z,97972.84
2023-04-21T15:56:12.117Z,97975.78
2023-04-21T15:59:14.140Z,97972.47
2023-04-21T16:02:16.031Z,97962.03
2023-04-21T16:05:19.693Z,97964.47
2023-04-21T16:08:22.017Z,97965.88
2023-04-21T16:11:26.202Z,97961.19
2023-04-21T16:14:31.797Z,97955.63
2023-04-21T16:17:41.305Z,97959.56
2023-04-21T16:20:45.971Z,97951.88
2023-04-21T16:23:47.999Z,97954.97
2023-04-21T16:26:51.241Z,97946.03
2023-04-21T16:29:53.288Z,97945.03
2023-04-21T16:32:54.953Z,97940.38
2023-04-21T16:35:57.624Z,97945.97
2023-04-21T16:38:59.608Z,97940.28
2023-04-21T16:42:02.877Z,97941.28
2023-04-21T16:45:04.943Z,97936.69
2023-04-21T16:48:06.931Z,97929.81
2023-04-21T16:51:09.039Z,97931.59
2023-04-21T16:54:11.655Z,97924.72
2023-04-21T16:57:14.977Z,97920.44
2023-04-21T17:00:17.089Z,97926.63
2023-04-21T17:03:18.869Z,97920.94
2023-04-21T17:06:21.512Z,97926.28
2023-04-21T17:09:23.761Z,97930.03
2023-04-21T17:12:27.258Z,97920.88
2023-04-21T17:15:28.966Z,97923.88
2023-04-21T17:18:30.593Z,97914.97
2023-04-21T17:21:32.223Z,97912.81
2023-04-21T17:24:49.116Z,97901.56
2023-04-21T17:27:56.093Z,97906.13
2023-04-21T17:31:13.607Z,97906.63
2023-04-21T17:34:16.209Z,97901.28
2023-04-21T17:37:18.310Z,97906.56
2023-04-21T17:40:20.176Z,97900.97
2023-04-21T17:43:23.178Z,97905.97
2023-04-21T17:46:25.533Z,97902.09
2023-04-21T17:49:27.312Z,97913.63
2023-04-21T17:52:28.857Z,97902.59
2023-04-21T17:55:31.228Z,97907.25
2023-04-21T17:58:35.708Z,97901.63
2023-04-21T18:01:37.414Z,97911.28
2023-04-21T18:04:39.590Z,97905.19
2023-04-21T18:07:41.470Z,97903.97
2023-04-21T18:10:43.604Z,97908.81
2023-04-21T18:13:46.726Z,97908.44
2023-04-21T18:16:48.412Z,97911.03
2023-04-21T18:19:50.417Z,97905.25
2023-04-21T18:22:54.208Z,97910.03
2023-04-21T18:25:56.326Z,97899.25
2023-04-21T18:28:59.517Z,97914.25
2023-04-21T18:32:01.364Z,97908.38
2023-04-21T18:35:03.982Z,97915.19
2023-04-21T18:38:07.860Z,97920.78
2023-04-21T18:41:09.456Z,97920.06
2023-04-21T18:44:14.554Z,97925.16
2023-04-21T18:47:16.382Z,97915.34
2023-04-21T18:50:18.349Z,97915.69
2023-04-21T18:53:22.689Z,97925.47
2023-04-21T18:56:24.641Z,97915.16
2023-04-21T18:59:27.611Z,97921.25
2023-04-21T19:02:30.011Z,97921.16
2023-04-21T19:05:34.689Z,97921.72
2023-04-21T19:08:42.834Z,97917.44
2023-04-21T19:11:46.816Z,97923.69
2023-04-21T19:14:50.158Z,97923.78
2023-04-21T19:17:53.203Z,97924.97
2023-04-21T19:20:55.117Z,97918.88
2023-04-21T19:23:57.923Z,97918.13
2023-04-21T19:27:01.604Z,97914.16
2023-04-21T19:30:05.789Z,97918.25
2023-04-21T19:33:07.550Z,97919.03
2023-04-21T19:36:09.532Z,97922.34
2023-04-21T19:39:12.210Z,97917.50
2023-04-21T19:42:13.689Z,97913.25
2023-04-21T19:45:17.124Z,97910.13
2023-04-21T19:48:18.807Z,97916.94
2023-04-21T19:51:21.779Z,97912.00
2023-04-21T19:54:24.822Z,97914.16
2023-04-21T19:57:27.122Z,97918.66
2023-04-21T20:00:30.347Z,97910.75
2023-04-21T20:03:32.712Z,97908.06
2023-04-21T20:06:34.412Z,97907.09
2023-04-21T20:09:36.215Z,97898.50
2023-04-21T20:12:38.355Z,97905.06
2023-04-21T20:15:42.101Z,97902.59
2023-04-21T20:18:43.863Z,97901.94
2023-04-21T20:21:45.693Z,97904.22
2023-04-21T20:24:47.583Z,97905.38
2023-04-21T20:27:49.199Z,97901.09
2023-04-21T20:30:52.410Z,97908.41
2023-04-21T20:33:54.317Z,97908.06
2023-04-21T20:36:56.047Z,97907.09
2023-04-21T20:40:00.373Z,97911.59
2023-04-21T20:43:02.207Z,97911.84
2023-04-21T20:46:05.536Z,97914.75
2023-04-21T20:49:07.202Z,97909.56
2023-04-21T20:52:08.845Z,97907.13
2023-04-21T20:55:11.310Z,97909.16
2023-04-21T20:58:13.021Z,97902.84
2023-04-21T21:01:16.696Z,97905.81
2023-04-21T21:04:18.977Z,97902.72
2023-04-21T21:07:20.809Z,97895.31
2023-04-21T21:10:22.689Z,97895.84
2023-04-21T21:13:24.478Z,97893.69
2023-04-21T21:16:31.733Z,97897.44
2023-04-21T21:19:34.130Z,97900.13
2023-04-21T21:22:35.810Z,97891.00
2023-04-21T21:25:37.477Z,97900.00
2023-04-21T21:28:40.307Z,97902.81
2023-04-21T21:31:44.684Z,97895.19
2023-04-21T21:34:46.427Z,97894.53
2023-04-21T21:37:48.229Z,97900.09
2023-04-21T21:40:50.283Z,97897.41
2023-04-21T21:43:51.825Z,97902.25
2023-04-21T21:46:54.887Z,97891.19
2023-04-21T21:49:58.711Z,97890.34
2023-04-21T21:53:00.624Z,97889.81
2023-04-21T21:56:02.480Z,97882.84
2023-04-21T21:59:04.171Z,97885.09
2023-04-21T22:02:07.323Z,97881.03
2023-04-21T22:05:10.067Z,97882.06
2023-04-21T22:08:12.925Z,97871.34
2023-04-21T22:11:20.895Z,97876.06
2023-04-21T22:14:23.962Z,97868.16
2023-04-21T22:17:27.977Z,97873.28
2023-04-21T22:20:30.021Z,97879.72
2023-04-21T22:23:31.991Z,97876.94
2023-04-21T22:26:33.854Z,97882.53
2023-04-21T22:29:35.915Z,97877.56
2023-04-21T22:32:42.058Z,97879.22
2023-04-21T22:35:43.907Z,97865.25
2023-04-21T22:38:46.504Z,97867.41
2023-04-21T22:41:48.263Z,97867.50
2023-04-21T22:44:49.955Z,97864.91
2023-04-21T22:47:53.350Z,97864.28
2023-04-21T22:50:55.653Z,97862.47
2023-04-21T22:53:57.272Z,97858.06
2023-04-21T22:56:58.907Z,97860.75
2023-04-21T23:00:00.606Z,97860.75
2023-04-21T23:03:03.986Z,97845.75
2023-04-21T23:06:06.108Z,97850.13
2023-04-21T23:09:07.959Z,97848.22
2023-04-21T23:12:09.600Z,97845.97
2023-04-21T23:15:11.403Z,97846.25
2023-04-21T23:18:14.428Z,97841.66
2023-04-21T23:21:16.457Z,97837.38
2023-04-21T23:24:19.159Z,97831.16
2023-04-21T23:27:20.870Z,97841.13
2023-04-21T23:30:22.461Z,97837.47
2023-04-21T23:33:26.066Z,97839.31
2023-04-21T23:36:27.779Z,97841.41
2023-04-21T23:39:29.490Z,97853.41
2023-04-21T23:42:31.010Z,97852.31
2023-04-21T23:45:32.670Z,97859.59
2023-04-21T23:48:35.964Z,97860.97
2023-04-21T23:51:37.738Z,97855.59
2023-04-21T23:54:39.448Z,97851.13
2023-04-21T23:57:41.149Z,97847.56
